createdAt,value
2018-09-30T00:00:51.437Z,0.80
2018-09-30T00:03:20.253Z,1.20
2018-09-30T00:05:48.585Z,1.10
2018-09-30T00:08:16.981Z,1.15
2018-09-30T00:10:45.598Z,0.75
2018-09-30T00:13:13.777Z,0.80
2018-09-30T00:15:42.704Z,0.70
2018-09-30T00:18:11.033Z,0.80
2018-09-30T00:20:38.963Z,1.55
2018-09-30T00:23:07.721Z,0.88
2018-09-30T00:25:47.880Z,0.80
2018-09-30T00:28:16.590Z,0.75
2018-09-30T00:30:45.149Z,0.80
2018-09-30T00:33:13.387Z,0.80
2018-09-30T00:35:41.180Z,0.75
2018-09-30T00:38:08.871Z,0.72
2018-09-30T00:40:37.105Z,1.02
2018-09-30T00:43:05.343Z,0.70
2018-09-30T00:45:36.398Z,1.37
2018-09-30T00:48:04.262Z,0.95
2018-09-30T00:50:32.021Z,0.70
2018-09-30T00:53:00.409Z,0.85
2018-09-30T00:55:28.271Z,1.15
2018-09-30T00:57:56.226Z,1.00
2018-09-30T01:00:23.920Z,1.20
2018-09-30T01:02:51.614Z,1.82
2018-09-30T01:05:20.530Z,0.90
2018-09-30T01:07:48.270Z,1.00
2018-09-30T01:10:16.380Z,0.90
2018-09-30T01:12:44.207Z,0.95
2018-09-30T01:15:12.101Z,1.00
2018-09-30T01:17:39.764Z,0.82
2018-09-30T01:20:07.627Z,1.02
2018-09-30T01:22:35.690Z,0.80
2018-09-30T01:25:03.389Z,1.15
2018-09-30T01:27:31.091Z,2.90
2018-09-30T01:29:58.778Z,1.15
2018-09-30T01:32:26.440Z,0.80
2018-09-30T01:34:54.114Z,0.90
2018-09-30T01:37:22.401Z,1.10
2018-09-30T01:39:50.146Z,1.40
2018-09-30T01:42:17.817Z,1.15
2018-09-30T01:44:45.683Z,0.85
2018-09-30T01:47:13.342Z,1.10
2018-09-30T01:49:41.578Z,0.90
2018-09-30T01:52:20.735Z,0.90
2018-09-30T01:54:48.402Z,1.17
2018-09-30T01:57:16.074Z,0.85
2018-09-30T01:59:43.763Z,1.82
2018-09-30T02:02:11.769Z,0.90
2018-09-30T02:04:39.794Z,0.90
2018-09-30T02:07:07.553Z,1.07
2018-09-30T02:09:35.402Z,1.32
2018-09-30T02:12:03.610Z,0.80
2018-09-30T02:14:31.339Z,0.90
2018-09-30T02:16:59.034Z,0.80
2018-09-30T02:19:26.761Z,0.90
2018-09-30T02:21:55.841Z,1.00
2018-09-30T02:24:23.858Z,0.75
2018-09-30T02:26:51.576Z,1.15
2018-09-30T02:29:20.097Z,1.42
2018-09-30T02:31:48.003Z,0.98
2018-09-30T02:34:15.693Z,1.00
2018-09-30T02:36:43.370Z,1.10
2018-09-30T02:39:11.152Z,0.80
2018-09-30T02:41:39.476Z,0.72
2018-09-30T02:44:07.484Z,0.80
2018-09-30T02:46:36.682Z,1.00
2018-09-30T02:49:04.362Z,0.72
2018-09-30T02:51:32.230Z,0.70
2018-09-30T02:54:00.613Z,0.85
2018-09-30T02:56:28.269Z,0.90
2018-09-30T02:58:56.014Z,1.02
2018-09-30T03:01:23.797Z,1.17
2018-09-30T03:03:51.393Z,0.95
2018-09-30T03:06:24.712Z,0.90
2018-09-30T03:08:58.745Z,0.70
2018-09-30T03:11:26.508Z,0.78
2018-09-30T03:13:54.122Z,1.10
2018-09-30T03:16:21.864Z,1.27
2018-09-30T03:18:49.753Z,1.00
2018-09-30T03:21:18.056Z,0.80
2018-09-30T03:23:45.709Z,1.10
2018-09-30T03:26:13.365Z,0.80
2018-09-30T03:28:41.091Z,0.78
2018-09-30T03:31:08.770Z,0.98
2018-09-30T03:33:36.524Z,1.00
2018-09-30T03:36:04.232Z,0.80
2018-09-30T03:38:31.993Z,0.70
2018-09-30T03:40:59.691Z,0.90
2018-09-30T03:43:27.434Z,0.90
2018-09-30T03:45:55.058Z,1.00
2018-09-30T03:48:22.785Z,0.82
2018-09-30T03:50:51.153Z,1.10
2018-09-30T03:53:18.932Z,0.80
2018-09-30T03:55:46.837Z,1.10
2018-09-30T03:58:14.488Z,0.90
2018-09-30T04:00:42.863Z,0.88
2018-09-30T04:03:10.478Z,1.67
2018-09-30T04:05:38.250Z,1.60
2018-09-30T04:08:05.969Z,1.75
2018-09-30T04:10:33.989Z,1.55
2018-09-30T04:13:01.692Z,1.45
2018-09-30T04:15:29.390Z,2.27
2018-09-30T04:17:57.109Z,2.05
2018-09-30T04:20:24.826Z,1.50
2018-09-30T04:22:52.513Z,1.40
2018-09-30T04:25:20.318Z,1.20
2018-09-30T04:27:48.143Z,1.52
2018-09-30T04:30:16.528Z,2.35
2018-09-30T04:32:44.152Z,2.33
2018-09-30T04:35:11.939Z,2.70
2018-09-30T04:37:39.649Z,1.98
2018-09-30T04:40:07.366Z,2.40
2018-09-30T04:42:35.759Z,2.58
2018-09-30T04:45:03.807Z,2.30
2018-09-30T04:47:31.526Z,1.70
2018-09-30T04:49:59.322Z,1.67
2018-09-30T04:52:27.090Z,1.00
2018-09-30T04:54:54.719Z,1.50
2018-09-30T04:57:22.741Z,1.50
2018-09-30T04:59:50.419Z,1.70
2018-09-30T05:02:18.154Z,2.02
2018-09-30T05:04:46.023Z,1.40
2018-09-30T05:07:13.737Z,1.80
2018-09-30T05:09:41.680Z,2.52
2018-09-30T05:12:09.994Z,1.65
2018-09-30T05:14:37.732Z,2.02
2018-09-30T05:17:05.646Z,2.10
2018-09-30T05:19:33.382Z,2.77
2018-09-30T05:22:01.730Z,2.90
2018-09-30T05:24:30.623Z,3.08
2018-09-30T05:26:58.348Z,3.30
2018-09-30T05:29:26.271Z,2.95
2018-09-30T05:31:54.090Z,3.52
2018-09-30T05:34:21.941Z,2.60
2018-09-30T05:36:49.598Z,3.70
2018-09-30T05:39:17.239Z,2.80
2018-09-30T05:41:44.899Z,3.00
2018-09-30T05:44:12.657Z,3.90
2018-09-30T05:46:40.462Z,3.27
2018-09-30T05:49:09.627Z,3.72
2018-09-30T05:51:37.901Z,3.37
2018-09-30T05:54:05.702Z,3.60
2018-09-30T05:56:33.360Z,3.40
2018-09-30T05:59:01.290Z,3.90
2018-09-30T06:01:29.201Z,3.95
2018-09-30T06:03:57.105Z,3.33
2018-09-30T06:06:24.771Z,4.17
2018-09-30T06:08:53.186Z,4.05
2018-09-30T06:11:20.878Z,4.05
2018-09-30T06:13:49.982Z,4.33
2018-09-30T06:16:18.882Z,3.75
2018-09-30T06:18:46.515Z,3.42
2018-09-30T06:21:14.834Z,4.60
2018-09-30T06:23:42.667Z,4.62
2018-09-30T06:26:10.962Z,3.70
2018-09-30T06:28:38.570Z,3.58
2018-09-30T06:31:06.738Z,4.35
2018-09-30T06:33:34.366Z,4.12
2018-09-30T06:36:02.296Z,4.40
2018-09-30T06:38:30.182Z,4.83
2018-09-30T06:40:58.101Z,3.33
2018-09-30T06:43:26.404Z,3.77
2018-09-30T06:45:54.137Z,3.83
2018-09-30T06:48:25.866Z,3.27
2018-09-30T06:50:53.775Z,3.20
2018-09-30T06:53:22.131Z,3.42
2018-09-30T06:55:49.807Z,2.80
2018-09-30T06:58:17.624Z,2.77
2018-09-30T07:00:45.369Z,3.37
2018-09-30T07:03:13.274Z,2.90
2018-09-30T07:05:41.118Z,3.58
2018-09-30T07:08:09.131Z,3.55
2018-09-30T07:10:36.824Z,2.83
2018-09-30T07:13:04.676Z,3.50
2018-09-30T07:15:32.658Z,3.30
2018-09-30T07:18:00.386Z,4.92
2018-09-30T07:20:28.094Z,4.50
2018-09-30T07:22:57.100Z,4.10
2018-09-30T07:25:24.870Z,3.17
2018-09-30T07:27:52.574Z,4.20
2018-09-30T07:30:20.422Z,3.95
2018-09-30T07:32:48.681Z,3.45
2018-09-30T07:35:16.979Z,3.65
2018-09-30T07:37:44.779Z,3.00
2018-09-30T07:40:12.637Z,2.95
2018-09-30T07:42:40.551Z,2.75
2018-09-30T07:45:08.977Z,3.20
2018-09-30T07:47:37.174Z,3.12
2018-09-30T07:50:05.186Z,2.77
2018-09-30T07:52:33.734Z,3.55
2018-09-30T07:55:01.642Z,3.10
2018-09-30T07:57:29.932Z,2.65
2018-09-30T07:59:57.743Z,3.40
2018-09-30T08:02:26.482Z,2.95
2018-09-30T08:04:54.535Z,3.30
2018-09-30T08:07:22.687Z,3.50
2018-09-30T08:09:50.646Z,3.65
2018-09-30T08:12:18.598Z,3.15
2018-09-30T08:14:46.377Z,3.10
2018-09-30T08:17:14.334Z,2.67
2018-09-30T08:19:42.720Z,3.37
2018-09-30T08:22:10.595Z,2.75
2018-09-30T08:24:38.986Z,3.37
2018-09-30T08:27:07.717Z,2.50
2018-09-30T08:29:38.546Z,2.02
2018-09-30T08:32:08.458Z,2.60
2018-09-30T08:34:38.033Z,2.05
2018-09-30T08:37:06.449Z,2.30
2018-09-30T08:39:34.831Z,2.30
2018-09-30T08:42:03.672Z,2.58
2018-09-30T08:44:32.027Z,2.55
2018-09-30T08:47:00.882Z,2.70
2018-09-30T08:49:29.293Z,2.62
2018-09-30T08:51:57.366Z,1.75
2018-09-30T08:54:25.473Z,2.50
2018-09-30T08:56:53.427Z,2.02
2018-09-30T08:59:21.277Z,2.07
2018-09-30T09:01:50.596Z,2.20
2018-09-30T09:04:19.605Z,2.25
2018-09-30T09:06:47.808Z,1.90
2018-09-30T09:09:16.153Z,2.25
2018-09-30T09:11:44.156Z,1.77
2018-09-30T09:14:11.976Z,2.42
2018-09-30T09:16:39.867Z,2.17
2018-09-30T09:19:07.905Z,1.60
2018-09-30T09:21:35.700Z,2.15
2018-09-30T09:24:03.801Z,2.37
2018-09-30T09:26:31.809Z,1.40
2018-09-30T09:28:59.655Z,2.85
2018-09-30T09:31:27.716Z,1.80
2018-09-30T09:33:55.446Z,1.75
2018-09-30T09:36:23.241Z,1.60
2018-09-30T09:38:51.198Z,2.35
2018-09-30T09:41:19.205Z,2.33
2018-09-30T09:43:47.019Z,2.08
2018-09-30T09:46:14.859Z,2.00
2018-09-30T09:48:42.721Z,3.15
2018-09-30T09:51:11.245Z,1.77
2018-09-30T09:54:01.297Z,1.85
2018-09-30T09:56:29.680Z,1.40
2018-09-30T09:58:57.692Z,1.87
2018-09-30T10:01:25.729Z,2.95
2018-09-30T10:03:53.488Z,1.98
2018-09-30T10:06:21.381Z,2.30
2018-09-30T10:08:49.327Z,2.20
2018-09-30T10:11:17.131Z,1.50
2018-09-30T10:13:45.816Z,1.60
2018-09-30T10:16:13.961Z,2.22
2018-09-30T10:18:41.716Z,1.65
2018-09-30T10:21:09.413Z,2.40
2018-09-30T10:23:37.165Z,1.90
2018-09-30T10:26:04.859Z,1.82
2018-09-30T10:28:32.676Z,2.17
2018-09-30T10:31:00.434Z,2.47
2018-09-30T10:33:28.193Z,1.75
2018-09-30T10:35:56.034Z,2.45
2018-09-30T10:38:23.849Z,2.80
2018-09-30T10:40:51.643Z,2.20
2018-09-30T10:43:19.435Z,2.50
2018-09-30T10:45:47.587Z,2.45
2018-09-30T10:48:15.462Z,2.70
2018-09-30T10:50:43.186Z,2.30
2018-09-30T10:53:11.033Z,3.55
2018-09-30T10:55:38.893Z,3.37
2018-09-30T10:58:06.723Z,3.90
2018-09-30T11:00:34.614Z,3.65
2018-09-30T11:03:02.338Z,2.70
2018-09-30T11:05:30.742Z,2.67
2018-09-30T11:07:58.581Z,3.20
2018-09-30T11:10:26.572Z,2.70
2018-09-30T11:12:54.508Z,3.07
2018-09-30T11:15:22.259Z,3.30
2018-09-30T11:17:50.964Z,2.63
2018-09-30T11:20:20.018Z,3.10
2018-09-30T11:22:47.765Z,4.33
2018-09-30T11:25:16.785Z,3.30
2018-09-30T11:27:44.712Z,3.37
2018-09-30T11:30:12.918Z,3.73
2018-09-30T11:32:41.896Z,3.50
2018-09-30T11:35:10.726Z,3.70
2018-09-30T11:37:38.718Z,4.10
2018-09-30T11:40:06.691Z,3.97
2018-09-30T11:42:34.720Z,3.30
2018-09-30T11:45:02.763Z,3.67
2018-09-30T11:47:30.536Z,3.50
2018-09-30T11:49:59.242Z,3.33
2018-09-30T11:52:27.126Z,3.63
2018-09-30T11:54:55.161Z,3.60
2018-09-30T11:57:22.893Z,4.27
2018-09-30T11:59:50.774Z,2.97
2018-09-30T12:02:18.878Z,3.40
2018-09-30T12:04:46.697Z,3.10
2018-09-30T12:07:14.674Z,3.90
2018-09-30T12:09:42.430Z,3.20
2018-09-30T12:12:10.251Z,4.07
2018-09-30T12:14:37.914Z,3.67
2018-09-30T12:17:05.930Z,3.43
2018-09-30T12:19:33.780Z,3.20
2018-09-30T12:22:01.700Z,3.67
2018-09-30T12:24:30.359Z,3.50
2018-09-30T12:26:58.634Z,3.60
2018-09-30T12:29:27.422Z,4.50
2018-09-30T12:31:55.916Z,3.43
2018-09-30T12:34:23.917Z,2.90
2018-09-30T12:36:51.718Z,3.57
2018-09-30T12:39:19.694Z,3.63
2018-09-30T12:41:48.145Z,3.67
2018-09-30T12:44:16.777Z,3.10
2018-09-30T12:46:47.266Z,4.00
2018-09-30T12:49:16.030Z,3.67
2018-09-30T12:51:44.746Z,3.73
2018-09-30T12:54:12.624Z,3.50
2018-09-30T12:56:40.501Z,3.60
2018-09-30T12:59:08.357Z,3.30
2018-09-30T13:01:36.334Z,3.10
2018-09-30T13:04:04.186Z,4.57
2018-09-30T13:06:31.952Z,3.60
2018-09-30T13:08:59.632Z,3.90
2018-09-30T13:11:28.192Z,3.60
2018-09-30T13:13:56.757Z,3.20
2018-09-30T13:16:25.098Z,2.97
2018-09-30T13:18:54.068Z,2.83
2018-09-30T13:21:22.301Z,3.73
2018-09-30T13:23:50.156Z,2.97
2018-09-30T13:26:18.276Z,3.53
2018-09-30T13:28:46.173Z,3.87
2018-09-30T13:31:13.965Z,3.57
2018-09-30T13:33:41.872Z,3.50
2018-09-30T13:36:09.807Z,3.97
2018-09-30T13:38:37.588Z,4.03
2018-09-30T13:41:05.694Z,3.10
2018-09-30T13:43:33.223Z,2.90
2018-09-30T13:46:01.357Z,2.80
2018-09-30T13:48:29.381Z,3.30
2018-09-30T13:50:57.276Z,4.20
2018-09-30T13:53:25.042Z,2.90
2018-09-30T13:55:53.025Z,3.27
2018-09-30T13:58:21.319Z,3.50
2018-09-30T14:00:49.541Z,3.10
2018-09-30T14:03:17.253Z,3.00
2018-09-30T14:05:45.031Z,3.80
2018-09-30T14:08:12.769Z,2.90
2018-09-30T14:10:40.682Z,2.73
2018-09-30T14:13:08.575Z,3.43
2018-09-30T14:15:36.619Z,2.50
2018-09-30T14:18:05.830Z,3.37
2018-09-30T14:20:33.510Z,2.73
2018-09-30T14:23:01.881Z,2.77
2018-09-30T14:25:30.476Z,3.40
2018-09-30T14:27:58.669Z,2.63
2018-09-30T14:30:26.582Z,2.73
2018-09-30T14:32:55.043Z,2.50
2018-09-30T14:35:23.193Z,3.23
2018-09-30T14:37:51.888Z,2.97
2018-09-30T14:40:20.658Z,2.87
2018-09-30T14:42:48.805Z,3.57
2018-09-30T14:45:16.939Z,2.70
2018-09-30T14:47:45.373Z,4.57
2018-09-30T14:50:14.726Z,3.73
2018-09-30T14:52:44.030Z,3.03
2018-09-30T14:55:12.533Z,3.57
2018-09-30T14:57:40.859Z,3.40
2018-09-30T15:00:09.759Z,3.00
2018-09-30T15:02:38.076Z,3.23
2018-09-30T15:05:06.955Z,2.93
2018-09-30T15:07:35.451Z,3.03
2018-09-30T15:10:05.321Z,3.43
2018-09-30T15:12:35.925Z,2.30
2018-09-30T15:15:05.905Z,3.07
2018-09-30T15:17:34.595Z,3.00
2018-09-30T15:20:03.075Z,3.23
2018-09-30T15:22:31.242Z,2.47
2018-09-30T15:24:59.682Z,2.27
2018-09-30T15:27:27.401Z,3.07
2018-09-30T15:29:55.399Z,2.57
2018-09-30T15:32:23.321Z,2.80
2018-09-30T15:34:51.202Z,2.60
2018-09-30T15:37:18.853Z,2.60
2018-09-30T15:39:46.711Z,2.93
2018-09-30T15:42:14.607Z,2.57
2018-09-30T15:44:42.380Z,3.13
2018-09-30T15:47:10.177Z,2.97
2018-09-30T15:49:37.930Z,3.07
2018-09-30T15:52:05.661Z,3.17
2018-09-30T15:54:33.650Z,3.30
2018-09-30T15:57:01.447Z,2.90
2018-09-30T15:59:30.087Z,2.40
2018-09-30T16:01:57.916Z,2.90
2018-09-30T16:04:25.679Z,2.90
2018-09-30T16:06:53.871Z,2.40
2018-09-30T16:09:22.041Z,2.60
2018-09-30T16:11:50.125Z,3.43
2018-09-30T16:14:18.197Z,3.00
2018-09-30T16:16:46.215Z,3.40
2018-09-30T16:19:13.891Z,3.13
2018-09-30T16:21:41.607Z,2.97
2018-09-30T16:24:09.325Z,3.00
2018-09-30T16:26:37.227Z,2.40
2018-09-30T16:29:05.332Z,4.60
2018-09-30T16:31:33.402Z,3.07
2018-09-30T16:34:01.628Z,2.80
2018-09-30T16:36:29.521Z,4.10
2018-09-30T16:38:57.243Z,5.00
2018-09-30T16:41:25.069Z,3.53
2018-09-30T16:43:52.990Z,3.43
2018-09-30T16:46:22.065Z,4.23
2018-09-30T16:48:49.878Z,3.33
2018-09-30T16:51:18.068Z,3.47
2018-09-30T16:53:45.919Z,3.77
2018-09-30T16:56:13.873Z,3.90
2018-09-30T16:58:41.654Z,3.23
2018-09-30T17:01:09.648Z,3.10
2018-09-30T17:03:37.496Z,2.40
2018-09-30T17:06:05.352Z,3.93
2018-09-30T17:08:33.193Z,3.58
2018-09-30T17:11:00.913Z,2.90
2018-09-30T17:13:29.105Z,2.75
2018-09-30T17:15:56.998Z,2.58
2018-09-30T17:18:25.284Z,2.45
2018-09-30T17:20:53.703Z,4.35
2018-09-30T17:23:21.738Z,4.17
2018-09-30T17:25:49.494Z,2.67
2018-09-30T17:28:17.223Z,4.37
2018-09-30T17:30:45.055Z,4.62
2018-09-30T17:33:12.917Z,4.62
2018-09-30T17:35:41.027Z,4.17
2018-09-30T17:38:09.473Z,4.60
2018-09-30T17:40:37.750Z,4.42
2018-09-30T17:43:05.564Z,4.10
2018-09-30T17:45:33.282Z,3.77
2018-09-30T17:48:01.406Z,4.05
2018-09-30T17:50:29.694Z,4.35
2018-09-30T17:52:57.747Z,5.17
2018-09-30T17:55:26.288Z,5.45
2018-09-30T17:57:54.196Z,5.67
2018-09-30T18:00:22.376Z,5.75
2018-09-30T18:02:50.244Z,4.70
2018-09-30T18:05:18.122Z,4.05
2018-09-30T18:07:45.931Z,4.70
2018-09-30T18:10:15.787Z,4.10
2018-09-30T18:12:43.599Z,4.03
2018-09-30T18:15:11.539Z,4.30
2018-09-30T18:17:39.669Z,3.72
2018-09-30T18:20:07.524Z,4.90
2018-09-30T18:22:35.280Z,4.28
2018-09-30T18:25:03.113Z,3.80
2018-09-30T18:27:31.120Z,5.37
2018-09-30T18:29:58.970Z,3.80
2018-09-30T18:32:26.990Z,3.83
2018-09-30T18:34:54.838Z,3.50
2018-09-30T18:37:22.626Z,4.30
2018-09-30T18:39:50.562Z,4.50
2018-09-30T18:42:18.587Z,5.30
2018-09-30T18:44:47.347Z,5.15
2018-09-30T18:47:15.695Z,4.25
2018-09-30T18:49:44.180Z,4.87
2018-09-30T18:52:12.353Z,4.37
2018-09-30T18:54:40.513Z,4.30
2018-09-30T18:57:08.528Z,5.55
2018-09-30T18:59:36.926Z,5.42
2018-09-30T19:02:05.041Z,4.75
2018-09-30T19:04:33.379Z,5.05
2018-09-30T19:07:01.787Z,4.25
2018-09-30T19:09:30.444Z,4.78
2018-09-30T19:11:58.864Z,4.50
2018-09-30T19:14:26.902Z,4.67
2018-09-30T19:16:54.985Z,3.90
2018-09-30T19:19:23.212Z,3.87
2018-09-30T19:21:51.355Z,4.00
2018-09-30T19:24:19.278Z,5.20
2018-09-30T19:26:47.068Z,4.17
2018-09-30T19:29:14.761Z,4.28
2018-09-30T19:31:42.544Z,3.67
2018-09-30T19:34:10.343Z,4.75
2018-09-30T19:36:38.485Z,6.20
2018-09-30T19:39:08.913Z,4.78
2018-09-30T19:41:37.335Z,4.78
2018-09-30T19:44:05.183Z,5.00
2018-09-30T19:46:33.223Z,4.58
2018-09-30T19:49:01.105Z,5.72
2018-09-30T19:51:28.991Z,4.95
2018-09-30T19:53:57.616Z,5.03
2018-09-30T19:56:25.303Z,3.58
2018-09-30T19:58:53.040Z,4.50
2018-09-30T20:01:20.925Z,4.60
2018-09-30T20:03:48.750Z,4.67
2018-09-30T20:06:17.474Z,3.17
2018-09-30T20:08:45.220Z,3.92
2018-09-30T20:11:13.045Z,4.05
2018-09-30T20:13:42.138Z,4.40
2018-09-30T20:16:10.014Z,3.95
2018-09-30T20:18:37.901Z,4.50
2018-09-30T20:21:05.726Z,3.90
2018-09-30T20:23:33.624Z,4.15
2018-09-30T20:26:01.468Z,3.22
2018-09-30T20:28:29.336Z,4.90
2018-09-30T20:30:57.845Z,4.53
2018-09-30T20:33:25.654Z,4.47
2018-09-30T20:35:53.682Z,3.67
2018-09-30T20:38:21.693Z,5.58
2018-09-30T20:40:50.042Z,3.72
2018-09-30T20:43:18.413Z,3.10
2018-09-30T20:45:46.386Z,3.42
2018-09-30T20:48:14.157Z,3.55
2018-09-30T20:50:41.925Z,3.80
2018-09-30T20:53:09.838Z,4.83
2018-09-30T20:55:37.693Z,4.80
2018-09-30T20:58:05.570Z,4.62
2018-09-30T21:00:33.242Z,4.83
2018-09-30T21:03:05.311Z,3.47
2018-09-30T21:06:44.739Z,4.47
2018-09-30T21:09:15.945Z,4.65
2018-09-30T21:11:48.279Z,3.95
2018-09-30T21:14:16.076Z,3.60
2018-09-30T21:16:43.967Z,3.98
2018-09-30T21:19:12.302Z,3.95
2018-09-30T21:21:40.457Z,4.50
2018-09-30T21:24:08.699Z,4.55
2018-09-30T21:26:36.663Z,4.10
2018-09-30T21:29:04.567Z,4.00
2018-09-30T21:31:32.434Z,4.00
2018-09-30T21:34:00.162Z,3.95
2018-09-30T21:36:27.966Z,3.45
2018-09-30T21:38:55.779Z,3.98
2018-09-30T21:41:23.506Z,4.15
2018-09-30T21:43:51.451Z,3.90
2018-09-30T21:46:19.532Z,4.00
2018-09-30T21:48:47.639Z,5.20
2018-09-30T21:51:15.286Z,4.58
2018-09-30T21:53:44.146Z,4.03
2018-09-30T21:56:13.442Z,4.00
2018-09-30T21:58:41.527Z,3.50
2018-09-30T22:01:09.750Z,4.50
2018-09-30T22:03:37.649Z,3.83
2018-09-30T22:06:06.067Z,4.50
2018-09-30T22:08:33.822Z,5.17
2018-09-30T22:11:01.874Z,5.42
2018-09-30T22:13:29.834Z,6.25
2018-09-30T22:15:57.790Z,5.80
2018-09-30T22:18:25.540Z,4.90
2018-09-30T22:20:57.663Z,5.33
2018-09-30T22:23:26.966Z,5.37
2018-09-30T22:25:54.664Z,5.70
2018-09-30T22:28:22.949Z,6.25
2018-09-30T22:30:52.113Z,5.97
2018-09-30T22:33:20.669Z,5.40
2018-09-30T22:35:49.090Z,6.25
2018-09-30T22:38:16.873Z,5.92
2018-09-30T22:40:44.974Z,5.42
2018-09-30T22:43:12.673Z,5.80
2018-09-30T22:45:40.509Z,6.75
2018-09-30T22:48:08.352Z,6.67
2018-09-30T22:50:36.075Z,6.37
2018-09-30T22:53:03.901Z,5.53
2018-09-30T22:55:31.771Z,4.70
2018-09-30T22:58:00.175Z,5.42
2018-09-30T23:00:27.801Z,5.28
2018-09-30T23:02:55.941Z,4.95
2018-09-30T23:05:23.853Z,5.67
2018-09-30T23:07:51.866Z,6.12
2018-09-30T23:10:19.465Z,5.90
2018-09-30T23:12:47.543Z,6.80
2018-09-30T23:15:15.291Z,7.53
2018-09-30T23:17:43.120Z,6.80
2018-09-30T23:20:15.673Z,6.00
2018-09-30T23:22:43.598Z,6.40
2018-09-30T23:25:11.318Z,5.90
2018-09-30T23:27:39.042Z,6.58
2018-09-30T23:30:07.124Z,7.20
2018-09-30T23:32:35.058Z,6.20
2018-09-30T23:35:02.900Z,6.15
2018-09-30T23:37:30.530Z,6.15
2018-09-30T23:39:58.964Z,6.25
2018-09-30T23:42:26.864Z,5.50
2018-09-30T23:44:54.504Z,5.30
2018-09-30T23:47:22.234Z,6.30
2018-09-30T23:49:50.053Z,5.92
2018-09-30T23:52:17.936Z,5.25
2018-09-30T23:54:45.549Z,6.25
2018-09-30T23:57:13.512Z,6.10
2018-09-30T23:59:41.255Z,5.20
